createdAt,value
2023-03-26T00:00:13.053Z,99669.50
2023-03-26T00:03:18.725Z,99675.72
2023-03-26T00:06:23.189Z,99665.63
2023-03-26T00:09:26.298Z,99674.59
2023-03-26T00:12:28.718Z,99672.59
2023-03-26T00:15:32.347Z,99666.72
2023-03-26T00:18:35.040Z,99662.34
2023-03-26T00:21:38.227Z,99664.34
2023-03-26T00:24:40.752Z,99670.13
2023-03-26T00:27:45.904Z,99671.44
2023-03-26T00:30:59.613Z,99661.44
2023-03-26T00:34:04.047Z,99660.53
2023-03-26T00:37:07.186Z,99666.31
2023-03-26T00:40:11.219Z,99671.47
2023-03-26T00:43:20.873Z,99678.81
2023-03-26T00:46:25.232Z,99662.66
2023-03-26T00:49:30.656Z,99661.56
2023-03-26T00:52:33.701Z,99656.59
2023-03-26T00:55:36.520Z,99662.38
2023-03-26T00:58:39.720Z,99664.28
2023-03-26T01:01:42.632Z,99662.72
2023-03-26T01:04:55.764Z,99659.66
2023-03-26T01:07:58.467Z,99653.44
2023-03-26T01:11:07.139Z,99657.16
2023-03-26T01:14:16.087Z,99649.34
2023-03-26T01:17:18.916Z,99651.56
2023-03-26T01:20:30.588Z,99657.66
2023-03-26T01:23:43.254Z,99652.47
2023-03-26T01:27:12.123Z,99646.84
2023-03-26T01:30:33.816Z,99641.56
2023-03-26T01:33:49.096Z,99639.84
2023-03-26T01:37:27.515Z,99645.00
2023-03-26T01:41:02.370Z,99643.34
2023-03-26T01:44:30.796Z,99638.97
2023-03-26T01:47:34.965Z,99632.88
2023-03-26T01:50:37.815Z,99642.91
2023-03-26T01:53:46.737Z,99635.00
2023-03-26T01:57:07.706Z,99633.78
2023-03-26T02:00:25.508Z,99633.78
2023-03-26T02:03:32.377Z,99638.78
2023-03-26T02:06:37.998Z,99630.69
2023-03-26T02:09:46.082Z,99635.34
2023-03-26T02:12:49.955Z,99631.91
2023-03-26T02:16:01.521Z,99632.06
2023-03-26T02:19:04.554Z,99635.94
2023-03-26T02:22:15.990Z,99638.91
2023-03-26T02:25:21.243Z,99642.00
2023-03-26T02:28:26.016Z,99653.50
2023-03-26T02:31:30.604Z,99649.88
2023-03-26T02:34:34.070Z,99647.78
2023-03-26T02:37:36.842Z,99651.63
2023-03-26T02:40:48.468Z,99646.38
2023-03-26T02:43:51.802Z,99648.38
2023-03-26T02:46:57.551Z,99657.56
2023-03-26T02:50:20.792Z,99659.88
2023-03-26T02:53:43.506Z,99661.72
2023-03-26T02:57:08.370Z,99675.88
2023-03-26T03:00:30.628Z,99683.81
2023-03-26T03:04:04.344Z,99685.75
2023-03-26T03:07:16.920Z,99691.16
2023-03-26T03:10:21.979Z,99694.69
2023-03-26T03:13:42.468Z,99689.69
2023-03-26T03:16:45.047Z,99685.19
2023-03-26T03:19:48.522Z,99691.56
2023-03-26T03:22:53.202Z,99687.88
2023-03-26T03:25:57.783Z,99693.66
2023-03-26T03:29:00.765Z,99699.34
2023-03-26T03:32:04.149Z,99705.75
2023-03-26T03:35:14.673Z,99690.75
2023-03-26T03:38:20.842Z,99694.75
2023-03-26T03:41:25.881Z,99691.44
2023-03-26T03:44:28.830Z,99685.06
2023-03-26T03:47:31.591Z,99678.34
2023-03-26T03:50:35.827Z,99676.75
2023-03-26T03:53:58.760Z,99669.22
2023-03-26T03:57:23.077Z,99663.72
2023-03-26T04:00:33.466Z,99667.59
2023-03-26T04:03:56.836Z,99664.06
2023-03-26T04:07:05.489Z,99667.78
2023-03-26T04:10:30.210Z,99666.47
2023-03-26T04:13:47.764Z,99676.56
2023-03-26T04:17:06.169Z,99686.94
2023-03-26T04:20:16.122Z,99693.59
2023-03-26T04:23:22.769Z,99688.91
2023-03-26T04:26:31.629Z,99698.84
2023-03-26T04:29:43.415Z,99697.03
2023-03-26T04:32:58.602Z,99688.00
2023-03-26T04:36:03.616Z,99692.16
2023-03-26T04:39:13.205Z,99698.84
2023-03-26T04:42:46.541Z,99694.94
2023-03-26T04:46:03.404Z,99700.06
2023-03-26T04:49:10.968Z,99705.66
2023-03-26T04:52:15.427Z,99698.59
2023-03-26T04:55:45.597Z,99704.97
2023-03-26T04:58:59.935Z,99711.06
2023-03-26T05:02:05.311Z,99706.97
2023-03-26T05:05:14.932Z,99708.13
2023-03-26T05:08:17.790Z,99713.84
2023-03-26T05:11:20.629Z,99721.19
2023-03-26T05:14:24.142Z,99716.84
2023-03-26T05:17:30.906Z,99712.06
2023-03-26T05:20:36.240Z,99703.41
2023-03-26T05:23:41.476Z,99723.13
2023-03-26T05:26:56.515Z,99726.41
2023-03-26T05:30:01.585Z,99740.50
2023-03-26T05:33:05.776Z,99744.78
2023-03-26T05:36:19.197Z,99742.69
2023-03-26T05:39:35.838Z,99747.03
2023-03-26T05:43:01.650Z,99756.84
2023-03-26T05:46:13.653Z,99758.19
2023-03-26T05:49:16.190Z,99760.88
2023-03-26T05:52:19.501Z,99760.78
2023-03-26T05:55:40.721Z,99758.84
2023-03-26T05:59:02.417Z,99755.28
2023-03-26T06:02:23.897Z,99748.34
2023-03-26T06:06:10.355Z,99750.41
2023-03-26T06:09:22.949Z,99769.00
2023-03-26T06:12:25.717Z,99761.91
2023-03-26T06:15:28.609Z,99772.69
2023-03-26T06:18:37.319Z,99766.66
2023-03-26T06:22:09.416Z,99768.81
2023-03-26T06:25:31.997Z,99770.88
2023-03-26T06:28:44.841Z,99766.59
2023-03-26T06:32:19.769Z,99761.84
2023-03-26T06:35:45.474Z,99770.53
2023-03-26T06:38:49.407Z,99760.09
2023-03-26T06:41:52.497Z,99760.19
2023-03-26T06:45:30.682Z,99757.03
2023-03-26T06:48:52.371Z,99766.44
2023-03-26T06:52:15.673Z,99756.97
2023-03-26T06:55:26.231Z,99769.06
2023-03-26T06:58:40.979Z,99764.91
2023-03-26T07:02:01.746Z,99763.75
2023-03-26T07:05:23.221Z,99764.31
2023-03-26T07:08:44.530Z,99764.47
2023-03-26T07:12:06.639Z,99757.25
2023-03-26T07:15:18.431Z,99760.66
2023-03-26T07:18:33.137Z,99759.97
2023-03-26T07:21:37.804Z,99752.13
2023-03-26T07:24:50.907Z,99754.59
2023-03-26T07:28:14.642Z,99767.63
2023-03-26T07:31:52.390Z,99763.81
2023-03-26T07:35:32.925Z,99755.22
2023-03-26T07:39:15.187Z,99759.75
2023-03-26T07:43:03.386Z,99753.97
2023-03-26T07:46:30.373Z,99753.72
2023-03-26T07:49:48.948Z,99745.56
2023-03-26T07:53:04.437Z,99742.91
2023-03-26T07:56:38.061Z,99737.63
2023-03-26T08:00:17.860Z,99739.56
2023-03-26T08:03:47.820Z,99727.69
2023-03-26T08:07:47.325Z,99742.25
2023-03-26T08:11:27.986Z,99740.41
2023-03-26T08:14:59.689Z,99748.66
2023-03-26T08:18:27.341Z,99751.91
2023-03-26T08:21:42.687Z,99733.78
2023-03-26T08:25:22.896Z,99746.81
2023-03-26T08:28:41.891Z,99736.53
2023-03-26T08:31:46.453Z,99737.19
2023-03-26T08:34:49.774Z,99749.50
2023-03-26T08:37:52.483Z,99741.47
2023-03-26T08:41:07.626Z,99743.97
2023-03-26T08:45:00.397Z,99743.09
2023-03-26T08:48:19.099Z,99741.63
2023-03-26T08:51:43.771Z,99745.53
2023-03-26T08:54:58.461Z,99743.09
2023-03-26T08:58:08.961Z,99741.91
2023-03-26T09:01:36.452Z,99742.53
2023-03-26T09:04:54.918Z,99738.25
2023-03-26T09:08:35.863Z,99732.84
2023-03-26T09:11:44.350Z,99748.03
2023-03-26T09:15:04.950Z,99738.34
2023-03-26T09:18:53.636Z,99735.53
2023-03-26T09:22:15.702Z,99746.13
2023-03-26T09:25:56.181Z,99742.09
2023-03-26T09:29:41.672Z,99738.78
2023-03-26T09:33:03.411Z,99736.34
2023-03-26T09:36:09.160Z,99734.41
2023-03-26T09:39:33.057Z,99728.44
2023-03-26T09:42:45.022Z,99734.72
2023-03-26T09:46:18.169Z,99732.00
2023-03-26T09:49:38.791Z,99737.44
2023-03-26T09:53:05.527Z,99734.53
2023-03-26T09:56:23.210Z,99719.00
2023-03-26T09:59:36.681Z,99724.13
2023-03-26T10:02:46.529Z,99725.56
2023-03-26T10:06:14.925Z,99716.91
2023-03-26T10:09:26.639Z,99706.09
2023-03-26T10:12:37.453Z,99698.47
2023-03-26T10:16:05.554Z,99705.09
2023-03-26T10:19:24.443Z,99700.53
2023-03-26T10:22:44.416Z,99697.72
2023-03-26T10:26:00.486Z,99702.16
2023-03-26T10:29:24.594Z,99697.47
2023-03-26T10:32:57.853Z,99699.63
2023-03-26T10:36:21.405Z,99694.88
2023-03-26T10:39:51.568Z,99685.88
2023-03-26T10:43:16.826Z,99692.81
2023-03-26T10:46:44.317Z,99682.03
2023-03-26T10:50:05.057Z,99674.41
2023-03-26T10:53:47.198Z,99671.97
2023-03-26T10:56:51.947Z,99670.59
2023-03-26T11:00:01.340Z,99674.72
2023-03-26T11:03:16.340Z,99669.22
2023-03-26T11:06:28.073Z,99670.06
2023-03-26T11:09:33.404Z,99670.63
2023-03-26T11:12:41.101Z,99655.41
2023-03-26T11:15:57.953Z,99659.88
2023-03-26T11:19:17.889Z,99654.91
2023-03-26T11:22:50.332Z,99653.25
2023-03-26T11:26:10.879Z,99652.31
2023-03-26T11:29:37.651Z,99645.22
2023-03-26T11:32:45.336Z,99647.13
2023-03-26T11:35:51.517Z,99644.75
2023-03-26T11:38:57.874Z,99638.69
2023-03-26T11:42:11.561Z,99624.72
2023-03-26T11:45:24.143Z,99627.94
2023-03-26T11:48:42.349Z,99623.16
2023-03-26T11:51:48.863Z,99619.63
2023-03-26T11:54:51.933Z,99620.81
2023-03-26T11:57:57.523Z,99625.50
2023-03-26T12:01:05.064Z,99616.81
2023-03-26T12:04:14.639Z,99624.28
2023-03-26T12:07:17.463Z,99620.63
2023-03-26T12:10:35.101Z,99618.38
2023-03-26T12:13:45.019Z,99610.91
2023-03-26T12:16:59.335Z,99607.13
2023-03-26T12:20:23.188Z,99608.38
2023-03-26T12:23:44.249Z,99599.03
2023-03-26T12:26:49.226Z,99597.69
2023-03-26T12:29:55.141Z,99585.50
2023-03-26T12:33:16.544Z,99574.22
2023-03-26T12:36:31.586Z,99568.69
2023-03-26T12:40:07.882Z,99565.22
2023-03-26T12:44:56.160Z,99559.63
2023-03-26T12:47:58.450Z,99551.00
2023-03-26T12:50:15.579Z,99548.09
2023-03-26T12:53:37.898Z,99545.22
2023-03-26T12:57:12.601Z,99551.72
2023-03-26T13:00:34.136Z,99525.53
2023-03-26T13:04:00.293Z,99532.81
2023-03-26T13:07:36.335Z,99533.28
2023-03-26T13:10:44.843Z,99522.19
2023-03-26T13:14:21.816Z,99518.97
2023-03-26T13:17:48.885Z,99517.94
2023-03-26T13:21:04.937Z,99491.78
2023-03-26T13:24:23.710Z,99489.28
2023-03-26T13:27:45.043Z,99482.78
2023-03-26T13:30:57.140Z,99485.84
2023-03-26T13:34:21.341Z,99485.38
2023-03-26T13:37:54.582Z,99481.50
2023-03-26T13:41:33.060Z,99478.13
2023-03-26T13:45:05.086Z,99465.38
2023-03-26T13:48:17.559Z,99466.47
2023-03-26T13:51:49.058Z,99460.56
2023-03-26T13:55:40.232Z,99461.91
2023-03-26T13:59:01.823Z,99457.28
2023-03-26T14:02:11.896Z,99458.84
2023-03-26T14:05:24.181Z,99449.56
2023-03-26T14:08:36.491Z,99453.09
2023-03-26T14:11:52.998Z,99449.84
2023-03-26T14:15:02.332Z,99431.88
2023-03-26T14:18:11.131Z,99439.16
2023-03-26T14:21:34.477Z,99430.22
2023-03-26T14:25:03.270Z,99422.63
2023-03-26T14:28:14.843Z,99419.25
2023-03-26T14:31:19.532Z,99416.56
2023-03-26T14:34:54.831Z,99431.03
2023-03-26T14:38:22.854Z,99423.34
2023-03-26T14:41:33.744Z,99433.59
2023-03-26T14:44:51.465Z,99438.94
2023-03-26T14:48:14.136Z,99425.53
2023-03-26T14:51:59.249Z,99431.44
2023-03-26T14:55:08.254Z,99420.97
2023-03-26T14:58:24.305Z,99406.91
2023-03-26T15:01:29.675Z,99415.03
2023-03-26T15:04:50.993Z,99411.16
2023-03-26T15:08:23.928Z,99413.97
2023-03-26T15:11:47.549Z,99415.81
2023-03-26T15:15:05.456Z,99407.25
2023-03-26T15:18:50.008Z,99409.03
2023-03-26T15:22:27.346Z,99403.41
2023-03-26T15:25:48.464Z,99396.91
2023-03-26T15:29:30.483Z,99400.16
2023-03-26T15:32:49.748Z,99394.56
2023-03-26T15:35:58.656Z,99400.09
2023-03-26T15:39:38.098Z,99397.81
2023-03-26T15:42:49.739Z,99401.25
2023-03-26T15:46:12.944Z,99392.59
2023-03-26T15:49:23.438Z,99388.25
2023-03-26T15:52:34.339Z,99386.13
2023-03-26T15:55:59.175Z,99377.56
2023-03-26T15:59:32.356Z,99376.31
2023-03-26T16:02:50.373Z,99370.13
2023-03-26T16:06:14.102Z,99358.88
2023-03-26T16:09:32.710Z,99367.13
2023-03-26T16:13:13.986Z,99346.94
2023-03-26T16:16:20.929Z,99350.13
2023-03-26T16:19:23.405Z,99345.22
2023-03-26T16:22:43.855Z,99344.59
2023-03-26T16:26:11.759Z,99348.72
2023-03-26T16:29:14.702Z,99349.53
2023-03-26T16:32:41.593Z,99345.03
2023-03-26T16:36:05.856Z,99344.44
2023-03-26T16:39:08.641Z,99350.69
2023-03-26T16:42:33.302Z,99348.19
2023-03-26T16:46:09.958Z,99348.72
2023-03-26T16:49:24.496Z,99343.88
2023-03-26T16:52:34.541Z,99337.19
2023-03-26T16:55:53.409Z,99341.22
2023-03-26T16:59:00.386Z,99341.34
2023-03-26T17:02:14.557Z,99336.16
2023-03-26T17:05:34.258Z,99330.97
2023-03-26T17:08:58.681Z,99325.81
2023-03-26T17:12:23.833Z,99326.47
2023-03-26T17:15:32.888Z,99324.81
2023-03-26T17:19:09.812Z,99331.09
2023-03-26T17:22:30.303Z,99345.56
2023-03-26T17:25:40.502Z,99337.31
2023-03-26T17:29:04.640Z,99339.09
2023-03-26T17:32:12.327Z,99340.56
2023-03-26T17:35:15.881Z,99341.94
2023-03-26T17:38:21.627Z,99337.97
2023-03-26T17:41:51.190Z,99343.25
2023-03-26T17:45:17.618Z,99344.38
2023-03-26T17:48:24.065Z,99347.28
2023-03-26T17:51:58.113Z,99337.44
2023-03-26T17:55:02.230Z,99337.72
2023-03-26T17:58:23.585Z,99335.31
2023-03-26T18:01:36.254Z,99338.59
2023-03-26T18:04:45.636Z,99330.94
2023-03-26T18:08:02.169Z,99338.16
2023-03-26T18:11:24.221Z,99327.34
2023-03-26T18:14:52.882Z,99324.84
2023-03-26T18:18:09.596Z,99316.78
2023-03-26T18:21:21.794Z,99303.44
2023-03-26T18:24:29.335Z,99303.34
2023-03-26T18:27:41.063Z,99296.94
2023-03-26T18:30:48.507Z,99301.94
2023-03-26T18:33:59.206Z,99306.13
2023-03-26T18:37:11.394Z,99303.78
2023-03-26T18:40:18.555Z,99292.78
2023-03-26T18:43:34.404Z,99299.94
2023-03-26T18:46:38.670Z,99301.25
2023-03-26T18:49:44.377Z,99298.91
2023-03-26T18:52:47.130Z,99296.94
2023-03-26T18:55:51.533Z,99295.19
2023-03-26T18:58:58.136Z,99287.19
2023-03-26T19:02:10.836Z,99286.19
2023-03-26T19:05:16.912Z,99283.41
2023-03-26T19:08:21.881Z,99276.63
2023-03-26T19:11:26.588Z,99278.03
2023-03-26T19:14:35.292Z,99281.16
2023-03-26T19:18:07.061Z,99274.50
2023-03-26T19:21:10.648Z,99260.41
2023-03-26T19:24:15.017Z,99260.19
2023-03-26T19:27:18.312Z,99257.44
2023-03-26T19:30:34.070Z,99254.66
2023-03-26T19:33:40.322Z,99251.44
2023-03-26T19:36:58.443Z,99249.53
2023-03-26T19:40:25.629Z,99240.47
2023-03-26T19:43:29.574Z,99225.41
2023-03-26T19:46:53.645Z,99224.72
2023-03-26T19:50:03.224Z,99217.41
2023-03-26T19:53:17.909Z,99217.06
2023-03-26T19:56:22.250Z,99214.53
2023-03-26T19:59:25.037Z,99220.97
2023-03-26T20:02:28.567Z,99217.56
2023-03-26T20:05:34.497Z,99211.78
2023-03-26T20:08:37.630Z,99203.69
2023-03-26T20:11:40.843Z,99206.06
2023-03-26T20:14:45.469Z,99192.28
2023-03-26T20:17:52.550Z,99197.72
2023-03-26T20:20:58.023Z,99198.50
2023-03-26T20:24:01.510Z,99201.28
2023-03-26T20:27:04.416Z,99191.53
2023-03-26T20:30:09.137Z,99187.56
2023-03-26T20:33:25.646Z,99187.97
2023-03-26T20:36:33.820Z,99176.56
2023-03-26T20:39:39.635Z,99178.53
2023-03-26T20:42:44.629Z,99166.47
2023-03-26T20:45:48.598Z,99162.13
2023-03-26T20:48:52.039Z,99162.13
2023-03-26T20:51:55.861Z,99158.50
2023-03-26T20:54:58.962Z,99159.03
2023-03-26T20:58:01.778Z,99144.97
2023-03-26T21:01:04.904Z,99133.97
2023-03-26T21:04:08.040Z,99134.97
2023-03-26T21:07:17.838Z,99124.00
2023-03-26T21:10:23.165Z,99113.50
2023-03-26T21:13:38.998Z,99114.16
2023-03-26T21:16:42.194Z,99106.19
2023-03-26T21:19:45.864Z,99101.66
2023-03-26T21:23:30.582Z,99087.25
2023-03-26T21:26:43.637Z,99078.63
2023-03-26T21:29:47.089Z,99076.94
2023-03-26T21:32:50.267Z,99085.94
2023-03-26T21:35:53.833Z,99076.19
2023-03-26T21:38:56.697Z,99069.63
2023-03-26T21:42:04.807Z,99073.41
2023-03-26T21:45:09.411Z,99057.78
2023-03-26T21:48:12.835Z,99058.44
2023-03-26T21:51:19.215Z,99066.75
2023-03-26T21:54:24.925Z,99060.56
2023-03-26T21:57:57.852Z,99049.25
2023-03-26T22:01:26.285Z,99046.59
2023-03-26T22:04:41.512Z,99039.28
2023-03-26T22:07:56.404Z,99036.41
2023-03-26T22:10:59.181Z,99032.44
2023-03-26T22:14:02.968Z,99030.00
2023-03-26T22:17:05.816Z,99025.13
2023-03-26T22:20:13.061Z,99020.13
2023-03-26T22:23:19.947Z,99019.56
2023-03-26T22:26:24.100Z,99013.28
2023-03-26T22:29:27.393Z,99015.81
2023-03-26T22:32:32.897Z,99005.31
2023-03-26T22:35:36.164Z,99000.66
2023-03-26T22:38:39.750Z,98993.69
2023-03-26T22:41:42.755Z,98983.28
2023-03-26T22:44:45.713Z,98987.16
2023-03-26T22:47:48.357Z,98990.66
2023-03-26T22:51:08.355Z,98980.91
2023-03-26T22:54:11.054Z,98985.25
2023-03-26T22:57:13.775Z,98976.72
2023-03-26T23:00:22.184Z,98976.97
2023-03-26T23:03:35.079Z,98971.22
2023-03-26T23:06:38.328Z,98977.06
2023-03-26T23:09:41.802Z,98964.47
2023-03-26T23:12:44.302Z,98974.19
2023-03-26T23:15:49.179Z,98970.09
2023-03-26T23:18:52.375Z,98969.22
2023-03-26T23:21:55.176Z,98968.00
2023-03-26T23:24:58.266Z,98965.69
2023-03-26T23:28:01.083Z,98959.50
2023-03-26T23:31:08.355Z,98959.81
2023-03-26T23:34:13.638Z,98957.03
2023-03-26T23:37:22.881Z,98965.91
2023-03-26T23:40:28.309Z,98971.56
2023-03-26T23:43:31.150Z,98980.50
2023-03-26T23:46:34.770Z,98985.16
2023-03-26T23:49:37.434Z,98976.66
2023-03-26T23:52:40.236Z,98973.09
2023-03-26T23:55:47.259Z,98951.81
2023-03-26T23:58:50.504Z,98948.38
